OOCL Hochiminh City — VROK8 — position and weather

sailwx.info

Track history (hours):
 
Tides and Currents Weather Stations Pressure Air Temp Water Temp Dewpoint Dewpoint Depression Visibility Wind Speed Wind Dir Waves Ship Positions

OOCL Hochiminh City

Last reported at 2017-Dec-17 01:09 UTC. Time now 2017-Dec-18 01:26 UTC.
Position N 22°28' E 119°22'.

Length 335 m; draft 10 m.

Type: Cargo ship. MMSI: 477314100.

Date/timePositionNaut miles runAvg speedWind from/ knotsBaromVisibWave heightAir tempDewpointWater temp
2017-Dec-17 01:09N 22°28' E 119°22'421.8
2017-Dec-17 00:59N 22°29' E 119°26'1621.8
2017-Dec-17 00:16N 22°31' E 119°43'521.3
2017-Dec-17 00:00N 22°31' E 119°49'1121.0
2017-Dec-16 23:30N 22°32' E 120°00'1020.5
2017-Dec-16 23:00N 22°33' E 120°11'815.1
2017-Dec-16 22:30N 22°33' E 120°19'1 1.9
2017-Dec-16 22:00N 22°34' E 120°19'1 1.0
2017-Dec-16 21:30N 22°34' E 120°18'0 0.0
2017-Dec-16 20:58N 22°34' E 120°18'0 0.0
2017-Dec-16 20:28N 22°34' E 120°18'0 0.0
2017-Dec-16 19:58N 22°34' E 120°18'0 0.0
2017-Dec-16 19:28N 22°34' E 120°18'0 0.0
2017-Dec-16 18:58N 22°34' E 120°18'0 0.0
2017-Dec-16 18:28N 22°34' E 120°18'0 0.1
2017-Dec-16 17:58N 22°34' E 120°18'0 0.1
2017-Dec-16 17:25N 22°34' E 120°18'0 0.0
2017-Dec-16 16:58N 22°34' E 120°18'0 0.1
2017-Dec-16 16:28N 22°34' E 120°18'0 0.0
2017-Dec-16 15:58N 22°34' E 120°18'0 0.0
2017-Dec-16 15:25N 22°34' E 120°18'0 0.0
2017-Dec-16 14:58N 22°34' E 120°18'0 0.0
2017-Dec-16 14:28N 22°34' E 120°18'0 0.0
2017-Dec-16 13:58N 22°34' E 120°18'0 0.1
2017-Dec-16 13:28N 22°34' E 120°18'0 0.1
2017-Dec-16 12:58N 22°34' E 120°18'0 0.1
2017-Dec-16 12:28N 22°34' E 120°18'0 0.0
2017-Dec-16 11:58N 22°34' E 120°18'0 0.0
2017-Dec-16 11:28N 22°34' E 120°18'0 0.0
2017-Dec-16 10:58N 22°34' E 120°18'0 0.0
2017-Dec-16 10:28N 22°34' E 120°18'0 0.0
2017-Dec-16 09:58N 22°34' E 120°18'0 0.0
2017-Dec-16 09:28N 22°34' E 120°18'0 0.0
2017-Dec-16 08:58N 22°34' E 120°18'0 0.0
2017-Dec-16 08:28N 22°34' E 120°18'0 0.0
2017-Dec-16 07:58N 22°34' E 120°18'0 0.0
2017-Dec-16 07:25N 22°34' E 120°18'0 0.0
2017-Dec-16 06:58N 22°34' E 120°18'0 0.0
2017-Dec-16 06:28N 22°34' E 120°18'0 0.0
2017-Dec-16 05:58N 22°34' E 120°18'0 0.0
2017-Dec-16 05:28N 22°34' E 120°18'0 0.0
2017-Dec-16 04:58N 22°34' E 120°18'0 0.0
2017-Dec-16 04:25N 22°34' E 120°18'0 0.0
2017-Dec-16 03:58N 22°34' E 120°18'0 0.0
2017-Dec-16 03:28N 22°34' E 120°18'0 0.0
2017-Dec-16 02:52N 22°34' E 120°18'0 0.0
2017-Dec-16 02:28N 22°34' E 120°18'0 0.0
2017-Dec-16 01:58N 22°34' E 120°18'0 0.0
2017-Dec-16 01:28N 22°34' E 120°18'0 0.0
2017-Dec-16 00:58N 22°34' E 120°18'0 0.0
2017-Dec-16 00:28N 22°34' E 120°18'0 0.0
2017-Dec-15 23:58N 22°34' E 120°18'0 0.0
2017-Dec-15 23:28N 22°34' E 120°18'0 0.0
2017-Dec-15 22:58N 22°34' E 120°18'0 0.0
2017-Dec-15 22:28N 22°34' E 120°18'0 0.0
2017-Dec-15 22:01N 22°34' E 120°18'1 2.5
2017-Dec-15 21:30N 22°33' E 120°19'2 4.7
2017-Dec-15 21:01N 22°33' E 120°17'2 4.6
2017-Dec-15 20:30N 22°32' E 120°14'3 6.5
2017-Dec-15 20:00N 22°29' E 120°14'5 9.6
2017-Dec-15 19:30N 22°24' E 120°14'3 6.8
2017-Dec-15 19:00N 22°20' E 120°14'3 6.7
2017-Dec-15 18:30N 22°17' E 120°16'3 6.9
2017-Dec-15 18:00N 22°15' E 120°18'3 6.7
2017-Dec-15 17:30N 22°12' E 120°20'3 6.6
2017-Dec-15 17:01N 22°10' E 120°23'3 6.5
2017-Dec-15 16:30N 22°07' E 120°25'4 6.8
2017-Dec-15 15:59N 22°05' E 120°28'42 5.6
2017-Dec-15 08:28N 21°59' E 121°13'3 6.4
2017-Dec-15 08:00N 22°01' E 121°15'3 6.5
2017-Dec-15 07:30N 22°04' E 121°17'8 6.3
2017-Dec-15 06:12N 22°09' E 121°24'1 6.5
2017-Dec-15 06:00N 22°10' E 121°25'3 6.1
2017-Dec-15 05:27N 22°11' E 121°28'4 6.7
2017-Dec-15 04:50N 22°13' E 121°33'3 7.5
2017-Dec-15 04:24N 22°14' E 121°36'4 7.8
2017-Dec-15 03:54N 22°17' E 121°39'10 6.8
2017-Dec-15 02:30N 22°22' E 121°48'10 6.6
2017-Dec-15 01:01N 22°26' E 121°57'4 6.9
2017-Dec-15 00:30N 22°27' E 122°01'  
Track history (hours):
 
Tides and Currents Weather Stations Pressure Air Temp Water Temp Dewpoint Dewpoint Depression Visibility Wind Speed Wind Dir Waves Ship Positions

OOCL Hochiminh City

Last reported at 2017-Dec-17 01:09 UTC. Time now 2017-Dec-18 01:26 UTC.
Position N 22°28' E 119°22'.

Length 335 m; draft 10 m.

Type: Cargo ship. MMSI: 477314100.

Date/timePositionNaut miles runAvg speedWind from/ knotsBaromVisibWave heightAir tempDewpointWater temp
2017-Dec-17 01:09N 22°28' E 119°22'421.8
2017-Dec-17 00:59N 22°29' E 119°26'1621.8
2017-Dec-17 00:16N 22°31' E 119°43'521.3
2017-Dec-17 00:00N 22°31' E 119°49'1121.0
2017-Dec-16 23:30N 22°32' E 120°00'1020.5
2017-Dec-16 23:00N 22°33' E 120°11'815.1
2017-Dec-16 22:30N 22°33' E 120°19'1 1.9
2017-Dec-16 22:00N 22°34' E 120°19'1 1.0
2017-Dec-16 21:30N 22°34' E 120°18'0 0.0
2017-Dec-16 20:58N 22°34' E 120°18'0 0.0
2017-Dec-16 20:28N 22°34' E 120°18'0 0.0
2017-Dec-16 19:58N 22°34' E 120°18'0 0.0
2017-Dec-16 19:28N 22°34' E 120°18'0 0.0
2017-Dec-16 18:58N 22°34' E 120°18'0 0.0
2017-Dec-16 18:28N 22°34' E 120°18'0 0.1
2017-Dec-16 17:58N 22°34' E 120°18'0 0.1
2017-Dec-16 17:25N 22°34' E 120°18'0 0.0
2017-Dec-16 16:58N 22°34' E 120°18'0 0.1
2017-Dec-16 16:28N 22°34' E 120°18'0 0.0
2017-Dec-16 15:58N 22°34' E 120°18'0 0.0
2017-Dec-16 15:25N 22°34' E 120°18'0 0.0
2017-Dec-16 14:58N 22°34' E 120°18'0 0.0
2017-Dec-16 14:28N 22°34' E 120°18'0 0.0
2017-Dec-16 13:58N 22°34' E 120°18'0 0.1
2017-Dec-16 13:28N 22°34' E 120°18'0 0.1
2017-Dec-16 12:58N 22°34' E 120°18'0 0.1
2017-Dec-16 12:28N 22°34' E 120°18'0 0.0
2017-Dec-16 11:58N 22°34' E 120°18'0 0.0
2017-Dec-16 11:28N 22°34' E 120°18'0 0.0
2017-Dec-16 10:58N 22°34' E 120°18'0 0.0
2017-Dec-16 10:28N 22°34' E 120°18'0 0.0
2017-Dec-16 09:58N 22°34' E 120°18'0 0.0
2017-Dec-16 09:28N 22°34' E 120°18'0 0.0
2017-Dec-16 08:58N 22°34' E 120°18'0 0.0
2017-Dec-16 08:28N 22°34' E 120°18'0 0.0
2017-Dec-16 07:58N 22°34' E 120°18'0 0.0
2017-Dec-16 07:25N 22°34' E 120°18'0 0.0
2017-Dec-16 06:58N 22°34' E 120°18'0 0.0
2017-Dec-16 06:28N 22°34' E 120°18'0 0.0
2017-Dec-16 05:58N 22°34' E 120°18'0 0.0
2017-Dec-16 05:28N 22°34' E 120°18'0 0.0
2017-Dec-16 04:58N 22°34' E 120°18'0 0.0
2017-Dec-16 04:25N 22°34' E 120°18'0 0.0
2017-Dec-16 03:58N 22°34' E 120°18'0 0.0
2017-Dec-16 03:28N 22°34' E 120°18'0 0.0
2017-Dec-16 02:52N 22°34' E 120°18'0 0.0
2017-Dec-16 02:28N 22°34' E 120°18'0 0.0
2017-Dec-16 01:58N 22°34' E 120°18'0 0.0
2017-Dec-16 01:28N 22°34' E 120°18'0 0.0
2017-Dec-16 00:58N 22°34' E 120°18'0 0.0
2017-Dec-16 00:28N 22°34' E 120°18'0 0.0
2017-Dec-15 23:58N 22°34' E 120°18'0 0.0
2017-Dec-15 23:28N 22°34' E 120°18'0 0.0
2017-Dec-15 22:58N 22°34' E 120°18'0 0.0
2017-Dec-15 22:28N 22°34' E 120°18'0 0.0
2017-Dec-15 22:01N 22°34' E 120°18'1 2.5
2017-Dec-15 21:30N 22°33' E 120°19'2 4.7
2017-Dec-15 21:01N 22°33' E 120°17'2 4.6
2017-Dec-15 20:30N 22°32' E 120°14'3 6.5
2017-Dec-15 20:00N 22°29' E 120°14'5 9.6
2017-Dec-15 19:30N 22°24' E 120°14'3 6.8
2017-Dec-15 19:00N 22°20' E 120°14'3 6.7
2017-Dec-15 18:30N 22°17' E 120°16'3 6.9
2017-Dec-15 18:00N 22°15' E 120°18'3 6.7
2017-Dec-15 17:30N 22°12' E 120°20'3 6.6
2017-Dec-15 17:01N 22°10' E 120°23'3 6.5
2017-Dec-15 16:30N 22°07' E 120°25'4 6.8
2017-Dec-15 15:59N 22°05' E 120°28'42 5.6
2017-Dec-15 08:28N 21°59' E 121°13'3 6.4
2017-Dec-15 08:00N 22°01' E 121°15'3 6.5
2017-Dec-15 07:30N 22°04' E 121°17'8 6.3
2017-Dec-15 06:12N 22°09' E 121°24'1 6.5
2017-Dec-15 06:00N 22°10' E 121°25'3 6.1
2017-Dec-15 05:27N 22°11' E 121°28'4 6.7
2017-Dec-15 04:50N 22°13' E 121°33'3 7.5
2017-Dec-15 04:24N 22°14' E 121°36'4 7.8
2017-Dec-15 03:54N 22°17' E 121°39'10 6.8
2017-Dec-15 02:30N 22°22' E 121°48'10 6.6
2017-Dec-15 01:01N 22°26' E 121°57'4 6.9
2017-Dec-15 00:30N 22°27' E 122°01'  

Dump ship's entire track history